createdAt,value
2018-09-20T00:00:15.579Z,10.00
2018-09-20T00:05:25.643Z,8.63
2018-09-20T00:10:35.599Z,12.00
2018-09-20T00:15:45.953Z,10.90
2018-09-20T00:20:55.907Z,14.27
2018-09-20T00:26:06.442Z,23.40
2018-09-20T00:31:16.657Z,17.47
2018-09-20T00:36:26.635Z,10.97
2018-09-20T00:41:36.754Z,18.37
2018-09-20T00:46:46.683Z,10.97
2018-09-20T00:51:56.797Z,12.37
2018-09-20T00:57:06.773Z,15.90
2018-09-20T01:02:16.928Z,10.00
2018-09-20T01:07:26.965Z,14.67
2018-09-20T01:12:37.104Z,11.87
2018-09-20T01:17:47.261Z,11.20
2018-09-20T01:22:57.295Z,10.90
2018-09-20T01:28:07.283Z,10.13
2018-09-20T01:33:17.554Z,16.13
2018-09-20T01:38:27.642Z,13.87
2018-09-20T01:43:37.747Z,11.50
2018-09-20T01:48:47.828Z,15.73
2018-09-20T01:53:57.805Z,13.83
2018-09-20T01:59:07.849Z,15.77
2018-09-20T02:04:17.945Z,13.13
2018-09-20T02:09:28.025Z,16.03
2018-09-20T02:14:37.986Z,15.77
2018-09-20T02:19:48.128Z,14.03
2018-09-20T02:24:58.212Z,17.17
2018-09-20T02:30:08.374Z,19.20
2018-09-20T02:35:18.530Z,20.30
2018-09-20T02:40:30.239Z,13.80
2018-09-20T02:45:51.448Z,17.30
2018-09-20T02:51:09.626Z,12.57
2018-09-20T02:56:28.765Z,16.03
2018-09-20T03:01:42.694Z,15.97
2018-09-20T03:06:58.106Z,16.73
2018-09-20T03:12:15.718Z,17.43
2018-09-20T03:17:37.010Z,15.13
2018-09-20T03:22:56.416Z,15.10
2018-09-20T03:28:16.757Z,23.10
2018-09-20T03:33:35.965Z,11.90
2018-09-20T03:38:49.525Z,17.33
2018-09-20T03:44:01.749Z,18.70
2018-09-20T03:49:11.871Z,9.80
2018-09-20T03:54:21.822Z,14.53
2018-09-20T03:59:31.753Z,15.10
2018-09-20T04:04:41.686Z,20.13
2018-09-20T04:09:52.111Z,19.03
2018-09-20T04:15:02.214Z,15.77
2018-09-20T04:20:12.254Z,17.87
2018-09-20T04:25:22.324Z,22.97
2018-09-20T04:30:32.469Z,18.67
2018-09-20T04:35:42.483Z,15.33
2018-09-20T04:40:55.082Z,15.33
2018-09-20T04:46:05.121Z,15.93
2018-09-20T04:51:16.329Z,18.83
2018-09-20T04:56:26.265Z,18.83
2018-09-20T05:01:36.202Z,27.20
2018-09-20T05:06:46.187Z,16.63
2018-09-20T05:11:56.245Z,15.13
2018-09-20T05:17:06.348Z,13.03
2018-09-20T05:22:16.543Z,17.13
2018-09-20T05:27:26.549Z,17.57
2018-09-20T05:32:39.719Z,14.40
2018-09-20T05:37:49.811Z,18.97
2018-09-20T05:43:00.902Z,12.73
2018-09-20T05:48:11.470Z,15.47
2018-09-20T05:53:21.529Z,14.27
2018-09-20T05:58:31.913Z,17.23
2018-09-20T06:03:42.638Z,16.90
2018-09-20T06:08:52.636Z,17.60
2018-09-20T06:14:04.410Z,16.63
2018-09-20T06:19:14.417Z,17.17
2018-09-20T06:24:24.566Z,18.13
2018-09-20T06:29:34.705Z,20.13
2018-09-20T06:34:44.785Z,12.97
2018-09-20T06:40:30.868Z,17.00
2018-09-20T06:45:40.888Z,15.60
2018-09-20T06:50:50.950Z,17.23
2018-09-20T06:56:00.862Z,19.53
2018-09-20T07:01:10.900Z,16.10
2018-09-20T07:06:21.337Z,12.63
2018-09-20T07:11:31.487Z,16.60
2018-09-20T07:16:41.520Z,10.73
2018-09-20T07:21:51.660Z,15.30
2018-09-20T07:27:01.545Z,13.13
2018-09-20T07:32:11.504Z,13.93
2018-09-20T07:37:21.551Z,13.13
2018-09-20T07:42:31.479Z,9.93
2018-09-20T07:47:41.501Z,12.60
2018-09-20T07:52:51.500Z,13.27
2018-09-20T07:58:01.541Z,12.87
2018-09-20T08:03:11.403Z,13.10
2018-09-20T08:08:21.407Z,10.20
2018-09-20T08:13:31.416Z,11.30
2018-09-20T08:18:41.283Z,12.00
2018-09-20T08:23:51.296Z,11.93
2018-09-20T08:29:01.338Z,11.50
2018-09-20T08:34:11.303Z,14.97
2018-09-20T08:39:21.214Z,11.13
2018-09-20T08:44:31.256Z,16.37
2018-09-20T08:49:41.324Z,10.77
2018-09-20T08:54:51.347Z,12.07
2018-09-20T09:00:01.536Z,12.57
2018-09-20T09:05:11.618Z,9.30
2018-09-20T09:10:21.657Z,9.60
2018-09-20T09:15:31.572Z,12.17
2018-09-20T09:20:41.620Z,12.07
2018-09-20T09:25:51.664Z,11.37
2018-09-20T09:31:01.824Z,7.97
2018-09-20T09:36:11.744Z,11.57
2018-09-20T09:41:21.874Z,8.40
2018-09-20T09:46:31.775Z,8.20
2018-09-20T09:51:41.760Z,12.27
2018-09-20T09:56:51.807Z,8.47
2018-09-20T10:02:01.823Z,6.47
2018-09-20T10:07:11.917Z,6.27
2018-09-20T10:12:21.912Z,8.27
2018-09-20T10:17:32.204Z,9.97
2018-09-20T10:22:42.248Z,6.97
2018-09-20T10:27:52.212Z,11.00
2018-09-20T10:33:02.226Z,8.20
2018-09-20T10:38:12.126Z,6.13
2018-09-20T10:43:22.185Z,5.97
2018-09-20T10:48:33.140Z,4.93
2018-09-20T10:53:43.602Z,6.93
2018-09-20T10:58:53.866Z,8.47
2018-09-20T11:04:03.787Z,9.00
2018-09-20T11:09:13.804Z,7.57
2018-09-20T11:14:23.891Z,8.07
2018-09-20T11:19:33.919Z,6.20
2018-09-20T11:24:43.820Z,7.37
2018-09-20T11:29:53.864Z,7.63
2018-09-20T11:35:03.988Z,9.43
2018-09-20T11:40:13.949Z,6.00
2018-09-20T11:45:24.012Z,5.90
2018-09-20T11:50:35.005Z,6.60
2018-09-20T11:55:46.857Z,10.57
2018-09-20T12:00:56.920Z,6.37
2018-09-20T12:06:06.974Z,5.47
2018-09-20T12:11:16.815Z,9.30
2018-09-20T12:16:26.860Z,7.13
2018-09-20T12:21:36.913Z,5.63
2018-09-20T12:26:46.971Z,9.83
2018-09-20T12:31:56.932Z,6.57
2018-09-20T12:37:06.788Z,8.33
2018-09-20T12:42:16.695Z,6.60
2018-09-20T12:47:26.705Z,9.57
2018-09-20T12:52:36.744Z,11.30
2018-09-20T12:57:46.831Z,7.03
2018-09-20T13:02:56.839Z,7.13
2018-09-20T13:08:06.845Z,10.73
2018-09-20T13:13:16.927Z,7.03
2018-09-20T13:18:26.903Z,5.80
2018-09-20T13:23:37.053Z,7.53
2018-09-20T13:28:46.917Z,7.50
2018-09-20T13:33:57.072Z,7.50
2018-09-20T13:39:09.212Z,6.83
2018-09-20T13:44:19.220Z,6.33
2018-09-20T13:49:29.227Z,6.03
2018-09-20T13:54:39.232Z,10.67
2018-09-20T13:59:49.267Z,8.03
2018-09-20T14:04:59.278Z,4.27
2018-09-20T14:10:09.232Z,3.83
2018-09-20T14:15:19.267Z,7.30
2018-09-20T14:20:30.545Z,7.60
2018-09-20T14:25:40.472Z,8.50
2018-09-20T14:30:50.940Z,12.80
2018-09-20T14:36:00.930Z,9.03
2018-09-20T14:41:10.955Z,8.23
2018-09-20T14:46:51.847Z,10.17
2018-09-20T14:52:01.785Z,10.43
2018-09-20T14:57:11.851Z,5.60
2018-09-20T15:02:21.936Z,7.03
2018-09-20T15:07:31.772Z,4.73
2018-09-20T15:12:41.864Z,10.53
2018-09-20T15:17:51.906Z,6.07
2018-09-20T15:23:01.928Z,7.67
2018-09-20T15:28:12.187Z,6.10
2018-09-20T15:33:22.116Z,6.33
2018-09-20T15:38:32.166Z,5.80
2018-09-20T15:43:42.188Z,6.80
2018-09-20T15:48:52.230Z,7.17
2018-09-20T15:54:02.381Z,6.00
2018-09-20T15:59:12.296Z,9.43
2018-09-20T16:04:22.420Z,6.37
2018-09-20T16:09:32.456Z,8.27
2018-09-20T16:14:42.478Z,8.57
2018-09-20T16:19:52.516Z,6.27
2018-09-20T16:25:02.566Z,6.40
2018-09-20T16:30:24.285Z,7.13
2018-09-20T16:35:43.776Z,6.30
2018-09-20T16:40:54.581Z,6.63
2018-09-20T16:46:04.584Z,6.30
2018-09-20T16:51:14.536Z,7.67
2018-09-20T16:56:24.379Z,7.80
2018-09-20T17:01:34.403Z,8.20
2018-09-20T17:06:44.262Z,11.03
2018-09-20T17:11:54.129Z,6.20
2018-09-20T17:17:04.499Z,6.40
2018-09-20T17:22:14.521Z,7.70
2018-09-20T17:27:25.015Z,12.03
2018-09-20T17:32:34.913Z,7.67
2018-09-20T17:37:45.666Z,7.00
2018-09-20T17:43:00.375Z,6.87
2018-09-20T17:48:10.969Z,9.30
2018-09-20T17:53:21.650Z,8.83
2018-09-20T17:58:31.947Z,8.50
2018-09-20T18:03:41.885Z,10.03
2018-09-20T18:08:51.853Z,4.40
2018-09-20T18:14:01.772Z,8.87
2018-09-20T18:19:11.839Z,13.27
2018-09-20T18:24:31.754Z,6.47
2018-09-20T18:29:41.857Z,10.60
2018-09-20T18:34:51.904Z,10.40
2018-09-20T18:40:02.289Z,5.40
2018-09-20T18:45:12.232Z,7.13
2018-09-20T18:50:23.040Z,8.50
2018-09-20T18:55:33.116Z,9.27
2018-09-20T19:00:43.181Z,11.73
2018-09-20T19:05:53.264Z,8.40
2018-09-20T19:11:03.231Z,8.43
2018-09-20T19:16:13.088Z,6.30
2018-09-20T19:21:23.729Z,4.33
2018-09-20T19:26:34.756Z,13.60
2018-09-20T19:31:46.296Z,10.77
2018-09-20T19:36:58.513Z,4.23
2018-09-20T19:42:08.881Z,14.60
2018-09-20T19:47:19.229Z,12.80
2018-09-20T19:52:29.187Z,9.17
2018-09-20T19:57:39.221Z,10.13
2018-09-20T20:02:49.204Z,7.13
2018-09-20T20:07:59.949Z,5.80
2018-09-20T20:13:09.881Z,10.47
2018-09-20T20:18:19.960Z,7.40
2018-09-20T20:23:29.882Z,7.37
2018-09-20T20:28:39.972Z,9.30
2018-09-20T20:33:50.205Z,11.07
2018-09-20T20:39:00.064Z,10.03
2018-09-20T20:44:10.432Z,12.00
2018-09-20T20:49:20.660Z,10.77
2018-09-20T20:54:30.557Z,7.70
2018-09-20T20:59:40.524Z,6.30
2018-09-20T21:04:51.412Z,7.70
2018-09-20T21:10:04.309Z,8.30
2018-09-20T21:15:14.224Z,5.27
2018-09-20T21:20:24.121Z,7.40
2018-09-20T21:25:34.553Z,10.10
2018-09-20T21:30:45.252Z,7.87
2018-09-20T21:35:55.857Z,9.07
2018-09-20T21:41:06.195Z,7.37
2018-09-20T21:46:16.103Z,9.90
2018-09-20T21:51:26.752Z,8.53
2018-09-20T21:56:36.711Z,7.90
2018-09-20T22:01:52.668Z,5.17
2018-09-20T22:07:02.696Z,12.47
2018-09-20T22:12:12.743Z,8.77
2018-09-20T22:17:22.728Z,9.20
2018-09-20T22:22:33.304Z,6.87
2018-09-20T22:27:43.290Z,6.67
2018-09-20T22:32:53.530Z,4.77
2018-09-20T22:38:03.564Z,9.07
2018-09-20T22:43:13.878Z,7.67
2018-09-20T22:48:23.984Z,5.00
2018-09-20T22:53:34.017Z,5.23
2018-09-20T22:58:44.021Z,8.57
2018-09-20T23:03:54.084Z,9.20
2018-09-20T23:09:06.441Z,9.90
2018-09-20T23:14:16.391Z,7.33
2018-09-20T23:19:26.429Z,8.67
2018-09-20T23:24:36.439Z,5.40
2018-09-20T23:29:46.472Z,8.30
2018-09-20T23:34:56.429Z,5.63
2018-09-20T23:40:07.394Z,5.50
2018-09-20T23:45:17.291Z,7.00
2018-09-20T23:50:27.335Z,8.97
2018-09-20T23:55:37.347Z,7.93
